createdAt,value
2016-05-30T00:00:08.888Z,0
2016-05-30T00:00:18.888Z,0
2016-05-30T00:00:28.888Z,0
2016-05-30T00:00:38.891Z,0
2016-05-30T00:00:48.875Z,0.1
2016-05-30T00:00:58.875Z,0
2016-05-30T00:01:08.875Z,0
2016-05-30T00:01:18.875Z,0
2016-05-30T00:01:28.875Z,0
2016-05-30T00:01:38.877Z,0
2016-05-30T00:01:48.861Z,0
2016-05-30T00:01:58.861Z,0
2016-05-30T00:02:08.861Z,0
2016-05-30T00:02:18.861Z,0
2016-05-30T00:02:28.861Z,0
2016-05-30T00:02:38.864Z,0
2016-05-30T00:02:48.864Z,0
2016-05-30T00:02:58.864Z,0
2016-05-30T00:03:08.849Z,0
2016-05-30T00:03:18.849Z,0
2016-05-30T00:03:28.849Z,0
2016-05-30T00:03:38.836Z,0
2016-05-30T00:03:48.836Z,0
2016-05-30T00:03:58.836Z,0
2016-05-30T00:04:08.836Z,0
2016-05-30T00:04:18.836Z,0
2016-05-30T00:04:28.836Z,0
2016-05-30T00:04:38.839Z,0
2016-05-30T00:04:48.839Z,0
2016-05-30T00:04:58.839Z,0
2016-05-30T00:05:08.824Z,0
2016-05-30T00:05:18.824Z,0
2016-05-30T00:05:28.808Z,0
2016-05-30T00:05:38.826Z,0
2016-05-30T00:05:48.826Z,0
2016-05-30T00:05:58.810Z,0
2016-05-30T00:06:09.216Z,0
2016-05-30T00:06:18.997Z,0
2016-05-30T00:06:28.810Z,0
2016-05-30T00:06:38.797Z,0
2016-05-30T00:06:48.797Z,0
2016-05-30T00:06:58.797Z,0
2016-05-30T00:07:08.797Z,0
2016-05-30T00:07:18.797Z,0
2016-05-30T00:07:28.782Z,0
2016-05-30T00:07:38.782Z,0
2016-05-30T00:07:48.784Z,0
2016-05-30T00:07:58.784Z,0
2016-05-30T00:08:08.784Z,0
2016-05-30T00:08:18.784Z,0
2016-05-30T00:08:28.768Z,0
2016-05-30T00:08:38.768Z,0
2016-05-30T00:08:48.771Z,0
2016-05-30T00:08:58.771Z,0
2016-05-30T00:09:08.771Z,0
2016-05-30T00:09:18.771Z,0
2016-05-30T00:09:28.771Z,0
2016-05-30T00:09:38.755Z,0
2016-05-30T00:09:48.758Z,0
2016-05-30T00:09:58.758Z,0
2016-05-30T00:10:08.758Z,0
2016-05-30T00:10:18.743Z,0
2016-05-30T00:10:28.743Z,0
2016-05-30T00:10:38.743Z,0
2016-05-30T00:10:48.746Z,0
2016-05-30T00:10:58.746Z,0
2016-05-30T00:11:08.746Z,0
2016-05-30T00:11:18.746Z,0
2016-05-30T00:11:28.730Z,0
2016-05-30T00:11:38.730Z,0
2016-05-30T00:11:48.732Z,0
2016-05-30T00:11:58.717Z,0
2016-05-30T00:12:08.717Z,0
2016-05-30T00:12:18.717Z,0
2016-05-30T00:12:28.717Z,0
2016-05-30T00:12:38.717Z,0
2016-05-30T00:12:48.720Z,0
2016-05-30T00:12:58.720Z,0
2016-05-30T00:13:08.704Z,0
2016-05-30T00:13:18.704Z,0
2016-05-30T00:13:28.704Z,0
2016-05-30T00:13:38.704Z,0
2016-05-30T00:13:48.707Z,0
2016-05-30T00:13:58.707Z,0
2016-05-30T00:14:08.707Z,0
2016-05-30T00:14:18.691Z,0
2016-05-30T00:14:28.691Z,0
2016-05-30T00:14:38.691Z,0
2016-05-30T00:14:48.709Z,0
2016-05-30T00:14:58.693Z,0
2016-05-30T00:15:08.678Z,0
2016-05-30T00:15:18.678Z,0
2016-05-30T00:15:28.678Z,0
2016-05-30T00:15:38.678Z,0
2016-05-30T00:15:48.681Z,0
2016-05-30T00:15:58.681Z,0
2016-05-30T00:16:08.665Z,0
2016-05-30T00:16:18.681Z,0
2016-05-30T00:16:28.665Z,0
2016-05-30T00:16:38.665Z,0
2016-05-30T00:16:48.668Z,0
2016-05-30T00:16:58.652Z,0
2016-05-30T00:17:08.652Z,0
2016-05-30T00:17:18.668Z,0
2016-05-30T00:17:28.652Z,0
2016-05-30T00:17:38.652Z,0
2016-05-30T00:17:48.639Z,0
2016-05-30T00:17:58.654Z,0
2016-05-30T00:18:08.639Z,0
2016-05-30T00:18:18.654Z,0
2016-05-30T00:18:28.639Z,0
2016-05-30T00:18:38.639Z,0
2016-05-30T00:18:48.626Z,0
2016-05-30T00:18:58.626Z,0
2016-05-30T00:19:08.626Z,0
2016-05-30T00:19:18.642Z,0
2016-05-30T00:19:28.626Z,0
2016-05-30T00:19:38.626Z,0
2016-05-30T00:19:48.614Z,0
2016-05-30T00:19:58.614Z,0
2016-05-30T00:20:08.614Z,0
2016-05-30T00:20:18.614Z,0
2016-05-30T00:20:28.614Z,0
2016-05-30T00:20:38.614Z,0
2016-05-30T00:20:48.616Z,0
2016-05-30T00:20:58.600Z,0
2016-05-30T00:21:09.053Z,0
2016-05-30T00:21:18.600Z,0
2016-05-30T00:21:28.600Z,0
2016-05-30T00:21:38.584Z,0
2016-05-30T00:21:48.587Z,0
2016-05-30T00:21:58.884Z,0
2016-05-30T00:22:08.619Z,0
2016-05-30T00:22:18.665Z,0
2016-05-30T00:22:28.587Z,0
2016-05-30T00:22:38.587Z,0
2016-05-30T00:22:48.575Z,0
2016-05-30T00:22:58.575Z,0
2016-05-30T00:23:08.575Z,0
2016-05-30T00:23:18.575Z,0
2016-05-30T00:23:28.575Z,0
2016-05-30T00:23:38.559Z,0
2016-05-30T00:23:48.561Z,0
2016-05-30T00:23:58.561Z,0
2016-05-30T00:24:08.561Z,0
2016-05-30T00:24:18.561Z,0
2016-05-30T00:24:28.561Z,0
2016-05-30T00:24:38.545Z,0
2016-05-30T00:24:48.548Z,0
2016-05-30T00:24:58.548Z,0
2016-05-30T00:25:08.548Z,0
2016-05-30T00:25:18.548Z,0
2016-05-30T00:25:28.548Z,0
2016-05-30T00:25:38.533Z,0
2016-05-30T00:25:48.535Z,0
2016-05-30T00:25:58.535Z,0
2016-05-30T00:26:08.535Z,0
2016-05-30T00:26:18.519Z,0
2016-05-30T00:26:28.535Z,0
2016-05-30T00:26:38.519Z,0
2016-05-30T00:26:48.522Z,0
2016-05-30T00:26:58.522Z,0
2016-05-30T00:27:08.507Z,0
2016-05-30T00:27:18.522Z,0
2016-05-30T00:27:28.507Z,0
2016-05-30T00:27:38.507Z,0
2016-05-30T00:27:48.511Z,0
2016-05-30T00:27:58.511Z,0
2016-05-30T00:28:08.511Z,0
2016-05-30T00:28:18.511Z,0
2016-05-30T00:28:28.495Z,0
2016-05-30T00:28:38.511Z,0
2016-05-30T00:28:48.497Z,0
2016-05-30T00:28:58.497Z,0
2016-05-30T00:29:08.481Z,0
2016-05-30T00:29:18.481Z,0
2016-05-30T00:29:28.481Z,0
2016-05-30T00:29:38.481Z,0
2016-05-30T00:29:48.484Z,0
2016-05-30T00:29:58.484Z,0
2016-05-30T00:30:08.484Z,0
2016-05-30T00:30:18.484Z,0
2016-05-30T00:30:28.469Z,0
2016-05-30T00:30:38.469Z,0
2016-05-30T00:30:48.455Z,0
2016-05-30T00:30:58.455Z,0
2016-05-30T00:31:08.455Z,0
2016-05-30T00:31:18.455Z,0
2016-05-30T00:31:28.455Z,0
2016-05-30T00:31:38.455Z,0
2016-05-30T00:31:48.458Z,0
2016-05-30T00:31:58.442Z,0
2016-05-30T00:32:08.442Z,0
2016-05-30T00:32:18.442Z,0
2016-05-30T00:32:28.442Z,0
2016-05-30T00:32:38.442Z,0
2016-05-30T00:32:48.444Z,0
2016-05-30T00:32:58.429Z,0
2016-05-30T00:33:08.444Z,0
2016-05-30T00:33:18.444Z,0
2016-05-30T00:33:28.444Z,0
2016-05-30T00:33:38.429Z,0
2016-05-30T00:33:48.416Z,0
2016-05-30T00:33:58.432Z,0
2016-05-30T00:34:08.416Z,0
2016-05-30T00:34:18.416Z,0
2016-05-30T00:34:28.416Z,0
2016-05-30T00:34:38.416Z,0
2016-05-30T00:34:48.419Z,0
2016-05-30T00:34:58.419Z,0
2016-05-30T00:35:08.404Z,0
2016-05-30T00:35:18.419Z,0
2016-05-30T00:35:28.388Z,0
2016-05-30T00:35:38.404Z,0
2016-05-30T00:35:48.391Z,0
2016-05-30T00:35:58.391Z,0
2016-05-30T00:36:08.391Z,0
2016-05-30T00:36:18.485Z,0
2016-05-30T00:36:28.578Z,0
2016-05-30T00:36:38.391Z,0
2016-05-30T00:36:48.394Z,0
2016-05-30T00:36:58.378Z,0
2016-05-30T00:37:08.644Z,0
2016-05-30T00:37:18.378Z,0
2016-05-30T00:37:28.378Z,0
2016-05-30T00:37:38.363Z,0
2016-05-30T00:37:48.365Z,0
2016-05-30T00:37:58.365Z,0
2016-05-30T00:38:08.365Z,0
2016-05-30T00:38:18.365Z,0
2016-05-30T00:38:28.349Z,0
2016-05-30T00:38:38.365Z,0
2016-05-30T00:38:48.351Z,0
2016-05-30T00:38:58.351Z,0
2016-05-30T00:39:08.351Z,0
2016-05-30T00:39:18.335Z,0
2016-05-30T00:39:28.335Z,0
2016-05-30T00:39:38.335Z,0
2016-05-30T00:39:48.339Z,0
2016-05-30T00:39:58.339Z,0
2016-05-30T00:40:08.339Z,0
2016-05-30T00:40:18.339Z,0
2016-05-30T00:40:28.324Z,0
2016-05-30T00:40:38.324Z,0
2016-05-30T00:40:48.327Z,0
2016-05-30T00:40:58.327Z,0
2016-05-30T00:41:08.327Z,0
2016-05-30T00:41:18.327Z,0
2016-05-30T00:41:28.311Z,0
2016-05-30T00:41:38.311Z,0
2016-05-30T00:41:48.313Z,0
2016-05-30T00:41:58.313Z,0
2016-05-30T00:42:08.313Z,0
2016-05-30T00:42:18.298Z,0
2016-05-30T00:42:28.313Z,0
2016-05-30T00:42:38.313Z,0
2016-05-30T00:42:48.301Z,0
2016-05-30T00:42:58.301Z,0
2016-05-30T00:43:08.301Z,0
2016-05-30T00:43:18.301Z,0
2016-05-30T00:43:28.285Z,0
2016-05-30T00:43:38.285Z,0
2016-05-30T00:43:48.287Z,0
2016-05-30T00:43:58.287Z,0
2016-05-30T00:44:08.287Z,0
2016-05-30T00:44:18.271Z,0
2016-05-30T00:44:28.271Z,0
2016-05-30T00:44:38.271Z,0
2016-05-30T00:44:48.274Z,0
2016-05-30T00:44:58.274Z,0
2016-05-30T00:45:08.259Z,0
2016-05-30T00:45:18.259Z,0
2016-05-30T00:45:28.259Z,0
2016-05-30T00:45:38.259Z,0
2016-05-30T00:45:48.262Z,0
2016-05-30T00:45:58.262Z,0
2016-05-30T00:46:08.246Z,0
2016-05-30T00:46:18.246Z,0
2016-05-30T00:46:28.246Z,0
2016-05-30T00:46:38.246Z,0
2016-05-30T00:46:48.249Z,0
2016-05-30T00:46:58.249Z,0
2016-05-30T00:47:08.233Z,0
2016-05-30T00:47:18.233Z,0
2016-05-30T00:47:28.233Z,0
2016-05-30T00:47:38.233Z,0
2016-05-30T00:47:48.235Z,0
2016-05-30T00:47:58.235Z,0
2016-05-30T00:48:08.220Z,0
2016-05-30T00:48:18.220Z,0
2016-05-30T00:48:28.220Z,0
2016-05-30T00:48:38.220Z,0
2016-05-30T00:48:48.223Z,0
2016-05-30T00:48:58.207Z,0
2016-05-30T00:49:08.223Z,0
2016-05-30T00:49:18.207Z,0
2016-05-30T00:49:28.207Z,0
2016-05-30T00:49:38.207Z,0
2016-05-30T00:49:48.195Z,0
2016-05-30T00:49:58.195Z,0
2016-05-30T00:50:08.195Z,0
2016-05-30T00:50:18.195Z,0
2016-05-30T00:50:28.195Z,0
2016-05-30T00:50:38.195Z,0
2016-05-30T00:50:48.197Z,0
2016-05-30T00:50:58.181Z,0
2016-05-30T00:51:08.181Z,0
2016-05-30T00:51:18.181Z,0
2016-05-30T00:51:28.353Z,0
2016-05-30T00:51:38.181Z,0
2016-05-30T00:51:48.184Z,0
2016-05-30T00:51:58.184Z,0
2016-05-30T00:52:08.168Z,0
2016-05-30T00:52:18.168Z,0
2016-05-30T00:52:28.153Z,0
2016-05-30T00:52:38.168Z,0
2016-05-30T00:52:48.155Z,0
2016-05-30T00:52:58.155Z,0
2016-05-30T00:53:08.155Z,0
2016-05-30T00:53:18.155Z,0
2016-05-30T00:53:28.155Z,0
2016-05-30T00:53:38.139Z,0
2016-05-30T00:53:48.158Z,0
2016-05-30T00:53:58.142Z,0
2016-05-30T00:54:08.142Z,0
2016-05-30T00:54:18.142Z,0
2016-05-30T00:54:28.126Z,0
2016-05-30T00:54:38.142Z,0
2016-05-30T00:54:48.129Z,0
2016-05-30T00:54:58.129Z,0
2016-05-30T00:55:08.129Z,0
2016-05-30T00:55:18.129Z,0
2016-05-30T00:55:28.129Z,0
2016-05-30T00:55:38.114Z,0
2016-05-30T00:55:48.117Z,0
2016-05-30T00:55:58.117Z,0
2016-05-30T00:56:08.117Z,0
2016-05-30T00:56:18.117Z,0
2016-05-30T00:56:28.117Z,0
2016-05-30T00:56:38.101Z,0
2016-05-30T00:56:48.103Z,0
2016-05-30T00:56:58.103Z,0
2016-05-30T00:57:08.103Z,0
2016-05-30T00:57:18.103Z,0
2016-05-30T00:57:28.103Z,0
2016-05-30T00:57:38.088Z,0
2016-05-30T00:57:48.106Z,0
2016-05-30T00:57:58.091Z,0
2016-05-30T00:58:08.075Z,0
2016-05-30T00:58:18.075Z,0
2016-05-30T00:58:28.091Z,0
2016-05-30T00:58:38.075Z,0
2016-05-30T00:58:48.078Z,0
2016-05-30T00:58:58.078Z,0
2016-05-30T00:59:08.062Z,0
2016-05-30T00:59:18.078Z,0
2016-05-30T00:59:28.062Z,0
2016-05-30T00:59:38.062Z,0
2016-05-30T00:59:48.064Z,0
2016-05-30T00:59:58.064Z,0
2016-05-30T01:00:08.064Z,0
2016-05-30T01:00:18.064Z,0
2016-05-30T01:00:28.049Z,0
2016-05-30T01:00:38.049Z,0
2016-05-30T01:00:48.052Z,0
2016-05-30T01:00:58.052Z,0
2016-05-30T01:01:08.036Z,0
2016-05-30T01:01:18.036Z,0
2016-05-30T01:01:28.036Z,0
2016-05-30T01:01:38.036Z,0
2016-05-30T01:01:48.038Z,0
2016-05-30T01:01:58.038Z,0
2016-05-30T01:02:08.022Z,0
2016-05-30T01:02:18.022Z,0
2016-05-30T01:02:28.022Z,0
2016-05-30T01:02:38.022Z,0
2016-05-30T01:02:48.025Z,0
2016-05-30T01:02:58.025Z,0
2016-05-30T01:03:08.025Z,0
2016-05-30T01:03:18.010Z,0
2016-05-30T01:03:28.010Z,0
2016-05-30T01:03:38.010Z,0
2016-05-30T01:03:48.013Z,0
2016-05-30T01:03:57.997Z,0
2016-05-30T01:04:07.997Z,0
2016-05-30T01:04:17.997Z,0
2016-05-30T01:04:27.997Z,0
2016-05-30T01:04:37.997Z,0
2016-05-30T01:04:48.000Z,0
2016-05-30T01:04:57.985Z,0
2016-05-30T01:05:07.985Z,0
2016-05-30T01:05:17.985Z,0
2016-05-30T01:05:27.985Z,0
2016-05-30T01:05:37.985Z,0
2016-05-30T01:05:47.971Z,0
2016-05-30T01:05:57.971Z,0
2016-05-30T01:06:07.971Z,0
2016-05-30T01:06:17.971Z,0
2016-05-30T01:06:27.971Z,0
2016-05-30T01:06:37.971Z,0
2016-05-30T01:06:47.974Z,0
2016-05-30T01:06:57.974Z,0
2016-05-30T01:07:08.458Z,0
2016-05-30T01:07:17.958Z,0
2016-05-30T01:07:27.958Z,0
2016-05-30T01:07:37.958Z,0
2016-05-30T01:07:47.946Z,0
2016-05-30T01:07:57.946Z,0
2016-05-30T01:08:07.946Z,0
2016-05-30T01:08:17.946Z,0
2016-05-30T01:08:27.946Z,0
2016-05-30T01:08:37.946Z,0
2016-05-30T01:08:47.948Z,0
2016-05-30T01:08:57.932Z,0
2016-05-30T01:09:07.932Z,0
2016-05-30T01:09:17.932Z,0
2016-05-30T01:09:27.932Z,0
2016-05-30T01:09:37.916Z,0
2016-05-30T01:09:47.935Z,0
2016-05-30T01:09:57.919Z,0
2016-05-30T01:10:07.919Z,0
2016-05-30T01:10:17.919Z,0
2016-05-30T01:10:27.919Z,0
2016-05-30T01:10:37.904Z,0
2016-05-30T01:10:47.906Z,0
2016-05-30T01:10:57.906Z,0
2016-05-30T01:11:07.906Z,0
2016-05-30T01:11:17.906Z,0
2016-05-30T01:11:27.906Z,0
2016-05-30T01:11:37.890Z,0
2016-05-30T01:11:47.893Z,0
2016-05-30T01:11:57.893Z,0
2016-05-30T01:12:07.893Z,0
2016-05-30T01:12:17.893Z,0
2016-05-30T01:12:27.893Z,0
2016-05-30T01:12:37.878Z,0
2016-05-30T01:12:47.881Z,0
2016-05-30T01:12:57.881Z,0
2016-05-30T01:13:07.881Z,0
2016-05-30T01:13:17.881Z,0
2016-05-30T01:13:27.881Z,0
2016-05-30T01:13:37.881Z,0
2016-05-30T01:13:47.868Z,0
2016-05-30T01:13:57.868Z,0
2016-05-30T01:14:07.852Z,0
2016-05-30T01:14:17.852Z,0
2016-05-30T01:14:27.852Z,0
2016-05-30T01:14:37.884Z,0
2016-05-30T01:14:47.854Z,0
2016-05-30T01:14:57.854Z,0
2016-05-30T01:15:07.854Z,0
2016-05-30T01:15:17.854Z,0
2016-05-30T01:15:27.854Z,0
2016-05-30T01:15:37.854Z,0
2016-05-30T01:15:47.843Z,0
2016-05-30T01:15:57.843Z,0
2016-05-30T01:16:07.843Z,0
2016-05-30T01:16:17.827Z,0
2016-05-30T01:16:27.843Z,0
2016-05-30T01:16:37.827Z,0
2016-05-30T01:16:47.829Z,0
2016-05-30T01:16:57.845Z,0
2016-05-30T01:17:07.813Z,0
2016-05-30T01:17:17.813Z,0
2016-05-30T01:17:27.813Z,0
2016-05-30T01:17:37.813Z,0
2016-05-30T01:17:47.816Z,0
2016-05-30T01:17:57.816Z,0
2016-05-30T01:18:07.816Z,0
2016-05-30T01:18:17.801Z,0
2016-05-30T01:18:27.801Z,0
2016-05-30T01:18:37.801Z,0
2016-05-30T01:18:47.803Z,0
2016-05-30T01:18:57.787Z,0
2016-05-30T01:19:07.787Z,0
2016-05-30T01:19:17.787Z,0
2016-05-30T01:19:27.803Z,0
2016-05-30T01:19:37.787Z,0
2016-05-30T01:19:47.790Z,0
2016-05-30T01:19:57.775Z,0
2016-05-30T01:20:07.775Z,0
2016-05-30T01:20:17.775Z,0
2016-05-30T01:20:27.775Z,0
2016-05-30T01:20:37.775Z,0
2016-05-30T01:20:47.778Z,0
2016-05-30T01:20:57.778Z,0
2016-05-30T01:21:07.762Z,0
2016-05-30T01:21:17.762Z,0
2016-05-30T01:21:28.246Z,0
2016-05-30T01:21:38.106Z,0
2016-05-30T01:21:47.765Z,0
2016-05-30T01:21:57.874Z,0
2016-05-30T01:22:08.062Z,0
2016-05-30T01:22:17.749Z,0
2016-05-30T01:22:27.812Z,0
2016-05-30T01:22:37.749Z,0
2016-05-30T01:22:47.751Z,0
2016-05-30T01:22:57.751Z,0
2016-05-30T01:23:07.736Z,0
2016-05-30T01:23:17.736Z,0
2016-05-30T01:23:27.736Z,0
2016-05-30T01:23:37.736Z,0
2016-05-30T01:23:47.739Z,0
2016-05-30T01:23:57.739Z,0
2016-05-30T01:24:07.723Z,0
2016-05-30T01:24:17.723Z,0
2016-05-30T01:24:27.723Z,0
2016-05-30T01:24:37.723Z,0
2016-05-30T01:24:47.726Z,0
2016-05-30T01:24:57.710Z,0
2016-05-30T01:25:07.710Z,0
2016-05-30T01:25:17.710Z,0
2016-05-30T01:25:27.710Z,0
2016-05-30T01:25:37.695Z,0
2016-05-30T01:25:47.713Z,0
2016-05-30T01:25:57.698Z,0
2016-05-30T01:26:07.698Z,0
2016-05-30T01:26:17.698Z,0
2016-05-30T01:26:27.698Z,0
2016-05-30T01:26:37.698Z,0
2016-05-30T01:26:47.684Z,0
2016-05-30T01:26:57.684Z,0
2016-05-30T01:27:07.684Z,0
2016-05-30T01:27:17.684Z,0
2016-05-30T01:27:27.684Z,0
2016-05-30T01:27:37.684Z,0
2016-05-30T01:27:47.672Z,0
2016-05-30T01:27:57.672Z,0
2016-05-30T01:28:07.672Z,0
2016-05-30T01:28:17.672Z,0
2016-05-30T01:28:27.672Z,0
2016-05-30T01:28:37.656Z,0
2016-05-30T01:28:47.658Z,0
2016-05-30T01:28:57.658Z,0
2016-05-30T01:29:07.658Z,0
2016-05-30T01:29:17.658Z,0
2016-05-30T01:29:27.658Z,0
2016-05-30T01:29:37.642Z,0
2016-05-30T01:29:47.645Z,0
2016-05-30T01:29:57.645Z,0
2016-05-30T01:30:07.645Z,0
2016-05-30T01:30:17.630Z,0
2016-05-30T01:30:27.645Z,0
2016-05-30T01:30:37.630Z,0
2016-05-30T01:30:47.633Z,0
2016-05-30T01:30:57.633Z,0
2016-05-30T01:31:07.633Z,0
2016-05-30T01:31:17.617Z,0
2016-05-30T01:31:27.633Z,0
2016-05-30T01:31:37.617Z,0
2016-05-30T01:31:47.619Z,0
2016-05-30T01:31:57.619Z,0
2016-05-30T01:32:07.619Z,0
2016-05-30T01:32:17.619Z,0
2016-05-30T01:32:27.603Z,0
2016-05-30T01:32:37.603Z,0
2016-05-30T01:32:47.606Z,0
2016-05-30T01:32:57.606Z,0
2016-05-30T01:33:07.606Z,0
2016-05-30T01:33:17.591Z,0
2016-05-30T01:33:27.591Z,0
2016-05-30T01:33:37.591Z,0
2016-05-30T01:33:47.593Z,0
2016-05-30T01:33:57.593Z,0
2016-05-30T01:34:07.593Z,0
2016-05-30T01:34:17.593Z,0
2016-05-30T01:34:27.577Z,0
2016-05-30T01:34:37.577Z,0
2016-05-30T01:34:47.581Z,0
2016-05-30T01:34:57.581Z,0
2016-05-30T01:35:07.581Z,0
2016-05-30T01:35:17.581Z,0
2016-05-30T01:35:27.581Z,0
2016-05-30T01:35:37.566Z,0
2016-05-30T01:35:47.568Z,0
2016-05-30T01:35:57.568Z,0
2016-05-30T01:36:07.552Z,0
2016-05-30T01:36:17.646Z,0
2016-05-30T01:36:27.552Z,0
2016-05-30T01:36:37.552Z,0
2016-05-30T01:36:47.555Z,0
2016-05-30T01:36:57.571Z,0
2016-05-30T01:37:07.555Z,0
2016-05-30T01:37:17.539Z,0
2016-05-30T01:37:27.539Z,0
2016-05-30T01:37:37.539Z,0
2016-05-30T01:37:47.541Z,0
2016-05-30T01:37:57.541Z,0
2016-05-30T01:38:07.526Z,0
2016-05-30T01:38:17.526Z,0
2016-05-30T01:38:27.541Z,0
2016-05-30T01:38:37.526Z,0
2016-05-30T01:38:47.529Z,0
2016-05-30T01:38:57.513Z,0
2016-05-30T01:39:07.513Z,0
2016-05-30T01:39:17.529Z,0
2016-05-30T01:39:27.513Z,0
2016-05-30T01:39:37.513Z,0
2016-05-30T01:39:47.500Z,0
2016-05-30T01:39:57.500Z,0
2016-05-30T01:40:07.500Z,0
2016-05-30T01:40:17.500Z,0
2016-05-30T01:40:27.500Z,0
2016-05-30T01:40:37.500Z,0
2016-05-30T01:40:47.503Z,0
2016-05-30T01:40:57.488Z,0
2016-05-30T01:41:07.488Z,0
2016-05-30T01:41:17.488Z,0
2016-05-30T01:41:27.488Z,0
2016-05-30T01:41:37.488Z,0
2016-05-30T01:41:47.490Z,0
2016-05-30T01:41:57.474Z,0
2016-05-30T01:42:07.474Z,0
2016-05-30T01:42:17.474Z,0
2016-05-30T01:42:27.474Z,0
2016-05-30T01:42:37.474Z,0
2016-05-30T01:42:47.462Z,0
2016-05-30T01:42:57.462Z,0
2016-05-30T01:43:07.462Z,0
2016-05-30T01:43:17.462Z,0
2016-05-30T01:43:27.462Z,0
2016-05-30T01:43:37.446Z,0
2016-05-30T01:43:47.449Z,0
2016-05-30T01:43:57.465Z,0
2016-05-30T01:44:07.449Z,0
2016-05-30T01:44:17.449Z,0
2016-05-30T01:44:27.449Z,0
2016-05-30T01:44:37.433Z,0
2016-05-30T01:44:47.451Z,0
2016-05-30T01:44:57.435Z,0
2016-05-30T01:45:07.435Z,0
2016-05-30T01:45:17.435Z,0
2016-05-30T01:45:27.435Z,0
2016-05-30T01:45:37.420Z,0
2016-05-30T01:45:47.423Z,0
2016-05-30T01:45:57.423Z,0
2016-05-30T01:46:07.423Z,0
2016-05-30T01:46:17.423Z,0
2016-05-30T01:46:27.423Z,0
2016-05-30T01:46:37.407Z,0
2016-05-30T01:46:47.409Z,0
2016-05-30T01:46:57.409Z,0
2016-05-30T01:47:07.393Z,0
2016-05-30T01:47:17.393Z,0
2016-05-30T01:47:27.393Z,0
2016-05-30T01:47:37.409Z,0
2016-05-30T01:47:47.396Z,0
2016-05-30T01:47:57.396Z,0
2016-05-30T01:48:07.396Z,0
2016-05-30T01:48:17.396Z,0
2016-05-30T01:48:27.381Z,0
2016-05-30T01:48:37.381Z,0
2016-05-30T01:48:47.384Z,0
2016-05-30T01:48:57.384Z,0
2016-05-30T01:49:07.384Z,0
2016-05-30T01:49:17.384Z,0
2016-05-30T01:49:27.368Z,0
2016-05-30T01:49:37.384Z,0
2016-05-30T01:49:47.371Z,0
2016-05-30T01:49:57.371Z,0
2016-05-30T01:50:07.356Z,0
2016-05-30T01:50:17.356Z,0
2016-05-30T01:50:27.371Z,0
2016-05-30T01:50:37.356Z,0
2016-05-30T01:50:47.358Z,0
2016-05-30T01:50:57.358Z,0
2016-05-30T01:51:07.358Z,0
2016-05-30T01:51:17.358Z,0
2016-05-30T01:51:27.358Z,0
2016-05-30T01:51:37.342Z,0
2016-05-30T01:51:47.454Z,0
2016-05-30T01:51:57.345Z,0
2016-05-30T01:52:07.345Z,0
2016-05-30T01:52:17.329Z,0
2016-05-30T01:52:27.329Z,0
2016-05-30T01:52:37.329Z,0
2016-05-30T01:52:47.332Z,0
2016-05-30T01:52:57.332Z,0
2016-05-30T01:53:07.317Z,0
2016-05-30T01:53:17.317Z,0
2016-05-30T01:53:27.317Z,0
2016-05-30T01:53:37.317Z,0
2016-05-30T01:53:47.350Z,0
2016-05-30T01:53:57.319Z,0
2016-05-30T01:54:07.303Z,0
2016-05-30T01:54:17.319Z,0
2016-05-30T01:54:27.303Z,0
2016-05-30T01:54:37.303Z,0
2016-05-30T01:54:47.306Z,0
2016-05-30T01:54:57.306Z,0
2016-05-30T01:55:07.290Z,0
2016-05-30T01:55:17.290Z,0
2016-05-30T01:55:27.290Z,0
2016-05-30T01:55:37.290Z,0
2016-05-30T01:55:47.292Z,0
2016-05-30T01:55:57.292Z,0
2016-05-30T01:56:07.277Z,0
2016-05-30T01:56:17.277Z,0
2016-05-30T01:56:27.277Z,0
2016-05-30T01:56:37.277Z,0
2016-05-30T01:56:47.280Z,0
2016-05-30T01:56:57.264Z,0
2016-05-30T01:57:07.264Z,0
2016-05-30T01:57:17.264Z,0
2016-05-30T01:57:27.264Z,0
2016-05-30T01:57:37.264Z,0
2016-05-30T01:57:47.267Z,0
2016-05-30T01:57:57.267Z,0
2016-05-30T01:58:07.252Z,0
2016-05-30T01:58:17.252Z,0
2016-05-30T01:58:27.252Z,0.4
2016-05-30T01:58:37.252Z,0.3
2016-05-30T01:58:47.239Z,0.4
2016-05-30T01:58:57.239Z,0.2
2016-05-30T01:59:07.255Z,0.2
2016-05-30T01:59:17.239Z,0.3
2016-05-30T01:59:27.239Z,0.3
2016-05-30T01:59:37.239Z,0.2
2016-05-30T01:59:47.225Z,0.3
2016-05-30T01:59:57.225Z,0.2
2016-05-30T02:00:07.225Z,0.1
2016-05-30T02:00:17.225Z,0.3
2016-05-30T02:00:27.225Z,0.2
2016-05-30T02:00:37.225Z,0.1
2016-05-30T02:00:47.214Z,0
2016-05-30T02:00:57.214Z,0.1
2016-05-30T02:01:07.229Z,0.1
2016-05-30T02:01:17.214Z,0.1
2016-05-30T02:01:27.214Z,0.2
2016-05-30T02:01:37.214Z,0.3
2016-05-30T02:01:47.216Z,0.3
2016-05-30T02:01:57.200Z,0.5
2016-05-30T02:02:07.200Z,0.4
2016-05-30T02:02:17.200Z,0.3
2016-05-30T02:02:27.216Z,0.4
2016-05-30T02:02:37.200Z,0.3
2016-05-30T02:02:47.186Z,0.4
2016-05-30T02:02:57.186Z,0.6
2016-05-30T02:03:07.186Z,0.7
2016-05-30T02:03:17.186Z,0.6
2016-05-30T02:03:27.186Z,0.9
2016-05-30T02:03:37.171Z,1
2016-05-30T02:03:47.174Z,0.9
2016-05-30T02:03:57.174Z,0.8
2016-05-30T02:04:07.174Z,0.9
2016-05-30T02:04:17.174Z,0.8
2016-05-30T02:04:27.174Z,0.8
2016-05-30T02:04:37.174Z,1
2016-05-30T02:04:47.161Z,0.8
2016-05-30T02:04:57.161Z,0.9
2016-05-30T02:05:07.161Z,0.7
2016-05-30T02:05:17.161Z,0.7
2016-05-30T02:05:27.146Z,0.6
2016-05-30T02:05:37.146Z,0.4
2016-05-30T02:05:47.149Z,0.3
2016-05-30T02:05:57.149Z,0.5
2016-05-30T02:06:07.149Z,0.2
2016-05-30T02:06:17.149Z,0.2
2016-05-30T02:06:27.133Z,0.1
2016-05-30T02:06:37.133Z,0.3
2016-05-30T02:06:47.136Z,0.2
2016-05-30T02:06:57.136Z,0.1
2016-05-30T02:07:07.136Z,0
2016-05-30T02:07:17.839Z,0
2016-05-30T02:07:27.120Z,0
2016-05-30T02:07:37.120Z,0
2016-05-30T02:07:47.123Z,0.1
2016-05-30T02:07:57.123Z,0
2016-05-30T02:08:07.123Z,0
2016-05-30T02:08:17.123Z,0
2016-05-30T02:08:27.108Z,0
2016-05-30T02:08:37.108Z,0
2016-05-30T02:08:47.109Z,0
2016-05-30T02:08:57.109Z,0
2016-05-30T02:09:07.109Z,0
2016-05-30T02:09:17.109Z,0
2016-05-30T02:09:27.093Z,0.1
2016-05-30T02:09:37.093Z,0
2016-05-30T02:09:47.097Z,0
2016-05-30T02:09:57.097Z,0
2016-05-30T02:10:07.097Z,0
2016-05-30T02:10:17.081Z,0
2016-05-30T02:10:27.081Z,0
2016-05-30T02:10:37.081Z,0
2016-05-30T02:10:47.083Z,0
2016-05-30T02:10:57.083Z,0
2016-05-30T02:11:07.068Z,0
2016-05-30T02:11:17.068Z,0
2016-05-30T02:11:27.068Z,0
2016-05-30T02:11:37.068Z,0
2016-05-30T02:11:47.071Z,0
2016-05-30T02:11:57.071Z,0
2016-05-30T02:12:07.055Z,0
2016-05-30T02:12:17.055Z,0
2016-05-30T02:12:27.055Z,0
2016-05-30T02:12:37.055Z,0
2016-05-30T02:12:47.058Z,0.3
2016-05-30T02:12:57.058Z,0.5
2016-05-30T02:13:07.043Z,0.3
2016-05-30T02:13:17.043Z,0.3
2016-05-30T02:13:27.043Z,0.3
2016-05-30T02:13:37.043Z,0.3
2016-05-30T02:13:47.045Z,0.3
2016-05-30T02:13:57.045Z,0.4
2016-05-30T02:14:07.029Z,0.4
2016-05-30T02:14:17.029Z,0.2
2016-05-30T02:14:27.029Z,0.3
2016-05-30T02:14:37.029Z,0.3
2016-05-30T02:14:47.016Z,0.3
2016-05-30T02:14:57.016Z,0.2
2016-05-30T02:15:07.016Z,0.5
2016-05-30T02:15:17.016Z,0.6
2016-05-30T02:15:27.016Z,0.4
2016-05-30T02:15:37.016Z,0.5
2016-05-30T02:15:47.004Z,0.9
2016-05-30T02:15:57.004Z,0.8
2016-05-30T02:16:07.004Z,0.8
2016-05-30T02:16:17.004Z,0.7
2016-05-30T02:16:27.004Z,0.8
2016-05-30T02:16:37.004Z,0.7
2016-05-30T02:16:47.007Z,0.6
2016-05-30T02:16:57.007Z,0.6
2016-05-30T02:17:06.991Z,0.5
2016-05-30T02:17:16.991Z,0.8
2016-05-30T02:17:26.991Z,0.7
2016-05-30T02:17:36.975Z,0.4
2016-05-30T02:17:46.993Z,0.3
2016-05-30T02:17:56.977Z,0.2
2016-05-30T02:18:06.977Z,0.3
2016-05-30T02:18:16.977Z,0.6
2016-05-30T02:18:26.977Z,0.5
2016-05-30T02:18:36.962Z,0.7
2016-05-30T02:18:46.965Z,0.6
2016-05-30T02:18:56.965Z,0.5
2016-05-30T02:19:06.965Z,0.5
2016-05-30T02:19:16.965Z,0.5
2016-05-30T02:19:26.949Z,0.4
2016-05-30T02:19:36.949Z,0.4
2016-05-30T02:19:46.952Z,0.5
2016-05-30T02:19:56.952Z,0.5
2016-05-30T02:20:06.952Z,0.6
2016-05-30T02:20:16.952Z,0.5
2016-05-30T02:20:26.952Z,0.7
2016-05-30T02:20:36.937Z,0.7
2016-05-30T02:20:46.939Z,0.6
2016-05-30T02:20:56.939Z,0.5
2016-05-30T02:21:06.939Z,0.8
2016-05-30T02:21:16.939Z,0.8
2016-05-30T02:21:26.939Z,1
2016-05-30T02:21:36.970Z,1
2016-05-30T02:21:47.285Z,0.9
2016-05-30T02:21:56.926Z,0.8
2016-05-30T02:22:06.926Z,0.8
2016-05-30T02:22:16.910Z,0.8
2016-05-30T02:22:27.692Z,0.7
2016-05-30T02:22:36.926Z,0.9
2016-05-30T02:22:46.912Z,1
2016-05-30T02:22:56.912Z,1
2016-05-30T02:23:06.912Z,1.1
2016-05-30T02:23:16.912Z,1
2016-05-30T02:23:26.897Z,1
2016-05-30T02:23:36.897Z,1.2
2016-05-30T02:23:46.900Z,1.2
2016-05-30T02:23:56.900Z,1.1
2016-05-30T02:24:06.900Z,1
2016-05-30T02:24:16.884Z,1
2016-05-30T02:24:26.900Z,1.1
2016-05-30T02:24:36.884Z,1.1
2016-05-30T02:24:46.887Z,1
2016-05-30T02:24:56.887Z,1
2016-05-30T02:25:06.871Z,1.2
2016-05-30T02:25:16.871Z,1.5
2016-05-30T02:25:26.871Z,1.5
2016-05-30T02:25:36.871Z,1.3
2016-05-30T02:25:46.874Z,1.3
2016-05-30T02:25:56.859Z,1.2
2016-05-30T02:26:06.859Z,1.2
2016-05-30T02:26:16.859Z,1.1
2016-05-30T02:26:26.859Z,1.3